Time;durP1;ratioP1;P1;durP2;ratioP2;P2;SDS_P1;SDS_P2;PMS_P1;PMS_P2;Temp;Humidity;BMP_temperature;BMP_pressure;BME280_temperature;BME280_humidity;BME280_pressure;Samples;Min_cycle;Max_cycle;Signal;HPM_P1;HPM_P2
2023/10/25 00:01:00;;;;;;;1.20;1.00;;;22.10;95.50;;;;;;4980245;28;20475;-63
2023/10/25 00:03:27;;;;;;;1.23;1.10;;;22.20;95.60;;;;;;4983243;28;20833;-63
2023/10/25 00:05:54;;;;;;;1.20;1.07;;;22.10;95.50;;;;;;4985821;28;20458;-63
2023/10/25 00:08:20;;;;;;;1.40;1.10;;;22.10;95.60;;;;;;4984916;28;20677;-63
2023/10/25 00:10:47;;;;;;;1.20;1.10;;;22.10;95.50;;;;;;4985152;28;20468;-63
2023/10/25 00:13:14;;;;;;;1.30;0.80;;;22.10;95.50;;;;;;4983553;28;20900;-63
2023/10/25 00:15:43;;;;;;;1.50;1.40;;;22.10;95.50;;;;;;4982027;28;20995;-63
2023/10/25 00:18:09;;;;;;;1.10;1.00;;;22.10;95.60;;;;;;4980662;28;20814;-63
2023/10/25 00:20:36;;;;;;;1.23;1.13;;;22.10;95.50;;;;;;4984896;28;20471;-63
2023/10/25 00:23:03;;;;;;;1.73;1.00;;;22.10;95.60;;;;;;4984290;28;20456;-64
2023/10/25 00:25:30;;;;;;;1.20;1.10;;;22.10;95.60;;;;;;4980507;28;20486;-64
2023/10/25 00:27:56;;;;;;;1.10;0.90;;;22.10;95.60;;;;;;4980631;28;20460;-63
2023/10/25 00:30:23;;;;;;;1.40;1.03;;;22.10;95.60;;;;;;4985168;28;20455;-64
2023/10/25 00:32:51;;;;;;;1.40;1.30;;;22.10;95.60;;;;;;4988579;28;20470;-64
2023/10/25 00:35:18;;;;;;;1.17;1.00;;;22.10;95.60;;;;;;4985499;28;20475;-64
2023/10/25 00:37:45;;;;;;;1.03;0.80;;;22.00;95.50;;;;;;4984034;28;20452;-63
2023/10/25 00:40:12;;;;;;;1.30;1.00;;;22.00;95.50;;;;;;4979686;28;20483;-64
2023/10/25 00:42:39;;;;;;;1.00;0.90;;;22.00;95.50;;;;;;4982126;28;20471;-63
2023/10/25 00:45:06;;;;;;;1.07;0.90;;;22.00;95.60;;;;;;4981798;28;21036;-64
2023/10/25 00:47:33;;;;;;;1.10;1.00;;;22.00;95.60;;;;;;4980879;28;21151;-63
2023/10/25 00:50:02;;;;;;;1.13;0.90;;;22.00;95.60;;;;;;4982283;28;20464;-63
2023/10/25 00:52:29;;;;;;;1.00;0.90;;;22.00;95.60;;;;;;4981769;28;20473;-64
2023/10/25 00:54:57;;;;;;;1.10;1.00;;;22.00;95.60;;;;;;4983576;28;20487;-63
2023/10/25 00:57:24;;;;;;;1.20;1.07;;;21.90;95.50;;;;;;4984049;28;20468;-64
2023/10/25 00:59:52;;;;;;;1.20;1.10;;;22.00;95.60;;;;;;4984077;28;20490;-63
2023/10/25 01:02:19;;;;;;;1.33;0.97;;;21.90;95.50;;;;;;4984006;28;20971;-64
2023/10/25 01:04:46;;;;;;;1.20;1.10;;;21.90;95.50;;;;;;4984598;28;20483;-64
2023/10/25 01:07:14;;;;;;;1.20;1.00;;;21.90;95.50;;;;;;4982957;28;20490;-64
2023/10/25 01:09:41;;;;;;;1.20;1.00;;;21.90;95.90;;;;;;4984022;28;20474;-63
2023/10/25 01:12:08;;;;;;;1.20;0.90;;;21.90;95.60;;;;;;4986035;28;20459;-63
2023/10/25 01:14:35;;;;;;;1.20;1.10;;;21.90;95.60;;;;;;4979889;28;20811;-63
2023/10/25 01:17:02;;;;;;;1.20;1.00;;;21.90;95.60;;;;;;4984701;28;20459;-64
2023/10/25 01:19:28;;;;;;;2.10;1.10;;;21.90;95.60;;;;;;4984369;28;20490;-64
2023/10/25 01:21:55;;;;;;;1.40;1.00;;;21.90;95.60;;;;;;4986031;28;20465;-64
2023/10/25 01:24:24;;;;;;;1.10;1.00;;;21.90;95.60;;;;;;4984838;28;20448;-63
2023/10/25 01:26:50;;;;;;;1.10;1.00;;;21.90;95.60;;;;;;4986415;28;20463;-63
2023/10/25 01:29:17;;;;;;;1.10;1.00;;;21.80;95.60;;;;;;4986050;28;20468;-64
2023/10/25 01:31:44;;;;;;;1.10;0.90;;;21.80;95.60;;;;;;4985434;28;20465;-63
2023/10/25 01:34:10;;;;;;;1.73;1.10;;;21.90;95.60;;;;;;4986495;28;20489;-63
2023/10/25 01:36:38;;;;;;;0.90;0.80;;;21.90;95.60;;;;;;4986244;28;20475;-63
2023/10/25 01:39:05;;;;;;;1.10;0.97;;;21.90;95.70;;;;;;4986514;28;20482;-63
2023/10/25 01:41:33;;;;;;;1.07;0.90;;;21.80;95.60;;;;;;4984301;28;20463;-64
2023/10/25 01:43:59;;;;;;;1.20;1.10;;;21.80;95.60;;;;;;4981295;28;20460;-63
2023/10/25 01:46:26;;;;;;;0.97;0.77;;;21.80;95.60;;;;;;4978546;28;20832;-63
2023/10/25 01:48:53;;;;;;;1.13;0.97;;;21.80;95.60;;;;;;4984031;28;20467;-63
2023/10/25 01:51:20;;;;;;;1.77;0.87;;;21.90;95.70;;;;;;4983385;28;20463;-63
2023/10/25 01:53:46;;;;;;;1.57;1.00;;;21.80;95.70;;;;;;4984077;28;20948;-63
2023/10/25 01:56:13;;;;;;;0.90;0.70;;;21.80;95.70;;;;;;4981622;28;22120;-63
2023/10/25 01:58:41;;;;;;;1.50;0.83;;;21.80;95.70;;;;;;4984728;28;20483;-63
2023/10/25 02:01:08;;;;;;;0.90;0.80;;;21.70;95.60;;;;;;4983480;28;20825;-63
2023/10/25 02:03:35;;;;;;;1.47;1.03;;;21.80;95.70;;;;;;4983586;28;21088;-64
2023/10/25 02:06:11;;;;;;;1.23;1.07;;;21.80;95.70;;;;;;4984305;28;20463;-63
2023/10/25 02:08:38;;;;;;;1.20;1.10;;;21.70;95.70;;;;;;4981073;28;21263;-64
2023/10/25 02:11:05;;;;;;;1.07;0.90;;;21.70;95.70;;;;;;4983028;28;20602;-63
2023/10/25 02:13:31;;;;;;;1.27;1.17;;;21.70;95.70;;;;;;4980796;28;20478;-63
2023/10/25 02:15:59;;;;;;;1.20;1.10;;;21.70;95.70;;;;;;4982055;28;20463;-63
2023/10/25 02:18:26;;;;;;;1.10;0.90;;;21.70;95.70;;;;;;4981340;28;20475;-63
2023/10/25 02:20:53;;;;;;;1.10;0.80;;;21.70;95.70;;;;;;4982125;28;20464;-63
2023/10/25 02:23:19;;;;;;;1.50;1.00;;;21.70;95.70;;;;;;4983094;28;20451;-64
2023/10/25 02:25:46;;;;;;;1.10;1.00;;;21.70;95.70;;;;;;4983187;28;20471;-63
2023/10/25 02:28:13;;;;;;;1.00;0.80;;;21.70;95.70;;;;;;4981944;28;20805;-63
2023/10/25 02:30:40;;;;;;;1.00;0.90;;;21.70;95.80;;;;;;4979828;28;20463;-63
2023/10/25 02:33:08;;;;;;;1.10;1.00;;;21.60;95.70;;;;;;4980191;28;20470;-63
2023/10/25 02:35:34;;;;;;;1.00;0.80;;;21.70;95.70;;;;;;4979234;28;21027;-63
2023/10/25 02:38:01;;;;;;;1.30;0.97;;;21.60;95.70;;;;;;4980257;28;20502;-64
2023/10/25 02:40:28;;;;;;;1.03;0.90;;;21.60;95.70;;;;;;4980728;28;20490;-63
2023/10/25 02:42:55;;;;;;;1.20;1.10;;;21.70;95.80;;;;;;4981589;28;20463;-63
2023/10/25 02:45:22;;;;;;;1.30;1.00;;;21.60;95.70;;;;;;4979421;28;20468;-63
2023/10/25 02:47:48;;;;;;;1.50;1.20;;;21.60;95.70;;;;;;4981091;28;20874;-64
2023/10/25 02:50:17;;;;;;;1.03;0.80;;;21.60;95.70;;;;;;4980855;28;20526;-64
2023/10/25 02:52:48;;;;;;;1.07;0.90;;;21.60;95.70;;;;;;4981287;28;20464;-63
2023/10/25 02:55:15;;;;;;;1.00;0.90;;;21.60;95.70;;;;;;4980557;28;20460;-64
2023/10/25 02:57:42;;;;;;;1.60;1.27;;;21.60;95.80;;;;;;4982230;28;20610;-64
2023/10/25 03:00:10;;;;;;;1.23;1.03;;;21.60;95.70;;;;;;4979645;28;20479;-64
2023/10/25 03:02:36;;;;;;;1.13;1.00;;;21.60;95.80;;;;;;4982316;28;20784;-63
2023/10/25 03:05:03;;;;;;;1.10;1.00;;;21.60;95.80;;;;;;4978546;28;20472;-64
2023/10/25 03:07:31;;;;;;;1.20;0.83;;;21.60;95.80;;;;;;4978730;28;20467;-63
2023/10/25 03:09:58;;;;;;;1.13;1.03;;;21.60;95.80;;;;;;4981798;28;20467;-63
2023/10/25 03:12:25;;;;;;;1.10;0.80;;;21.60;95.80;;;;;;4980915;28;20455;-64
2023/10/25 03:14:51;;;;;;;1.10;1.00;;;21.50;95.70;;;;;;4979377;28;21039;-64
2023/10/25 03:17:18;;;;;;;1.00;0.80;;;21.60;95.80;;;;;;4981035;28;20467;-63
2023/10/25 03:19:45;;;;;;;1.43;1.00;;;21.50;95.80;;;;;;4981429;28;21202;-63
2023/10/25 03:22:12;;;;;;;1.00;0.80;;;21.50;95.80;;;;;;4982006;28;20974;-64
2023/10/25 03:24:40;;;;;;;1.20;1.10;;;21.50;95.80;;;;;;4981157;28;20459;-64
2023/10/25 03:27:07;;;;;;;1.00;0.90;;;21.60;95.80;;;;;;4979275;28;21927;-64
2023/10/25 03:29:36;;;;;;;1.00;0.87;;;21.50;95.80;;;;;;4978337;28;20586;-64
2023/10/25 03:32:02;;;;;;;1.07;0.97;;;21.50;95.80;;;;;;4982041;28;20464;-64
2023/10/25 03:34:29;;;;;;;1.30;1.20;;;21.50;95.80;;;;;;4982283;28;20463;-63
2023/10/25 03:36:56;;;;;;;1.00;0.83;;;21.50;95.80;;;;;;4979975;28;20471;-64
2023/10/25 03:39:23;;;;;;;1.20;1.10;;;21.50;95.80;;;;;;4984962;28;20487;-64
2023/10/25 03:41:51;;;;;;;1.20;1.10;;;21.50;95.80;;;;;;4984754;28;20467;-64
2023/10/25 03:44:18;;;;;;;1.10;0.90;;;21.40;95.70;;;;;;4985009;28;20472;-64
2023/10/25 03:46:45;;;;;;;1.75;0.90;;;21.50;95.90;;;;;;4984481;28;20463;-63
2023/10/25 03:49:12;;;;;;;1.00;0.80;;;21.40;95.80;;;;;;4986891;28;20208;-64
2023/10/25 03:51:38;;;;;;;1.10;0.90;;;21.40;95.80;;;;;;4984212;28;20519;-64
2023/10/25 03:54:05;;;;;;;1.00;0.90;;;21.40;95.80;;;;;;4984051;28;20451;-64
2023/10/25 03:56:32;;;;;;;1.00;0.90;;;21.40;95.80;;;;;;4981832;28;20464;-64
2023/10/25 03:59:00;;;;;;;1.37;1.27;;;21.50;95.90;;;;;;4981667;28;20486;-64
2023/10/25 04:01:27;;;;;;;1.00;0.80;;;21.40;96.20;;;;;;4982717;28;20480;-64
2023/10/25 04:03:53;;;;;;;1.10;1.00;;;21.40;95.80;;;;;;4982494;28;20954;-64
2023/10/25 04:06:21;;;;;;;0.90;0.80;;;21.40;95.80;;;;;;4984486;28;20798;-64
2023/10/25 04:08:47;;;;;;;1.00;0.80;;;21.40;95.80;;;;;;4984335;28;20472;-63
2023/10/25 04:11:14;;;;;;;1.17;1.07;;;21.40;95.80;;;;;;4983387;28;20467;-64
2023/10/25 04:13:41;;;;;;;1.30;0.80;;;21.50;95.90;;;;;;4982795;28;20475;-64
2023/10/25 04:16:09;;;;;;;1.80;1.30;;;21.40;95.80;;;;;;4981838;28;20488;-64
2023/10/25 04:18:37;;;;;;;0.93;0.80;;;21.40;95.90;;;;;;4981710;28;21065;-64
2023/10/25 04:21:10;;;;;;;1.30;1.00;;;21.40;95.90;;;;;;4984326;28;20574;-64
2023/10/25 04:23:36;;;;;;;1.30;1.00;;;21.40;95.90;;;;;;4983422;28;21028;-64
2023/10/25 04:26:04;;;;;;;1.03;0.87;;;21.40;95.90;;;;;;4983035;28;20464;-64
2023/10/25 04:28:31;;;;;;;1.57;0.90;;;21.40;95.90;;;;;;4982894;28;20460;-64
2023/10/25 04:30:58;;;;;;;1.10;0.90;;;21.40;96.20;;;;;;4982763;28;20469;-64
2023/10/25 04:33:26;;;;;;;1.57;1.30;;;21.40;95.90;;;;;;4983515;28;20797;-64
2023/10/25 04:35:53;;;;;;;1.10;0.80;;;21.40;95.90;;;;;;4984035;28;20462;-64
2023/10/25 04:38:20;;;;;;;1.10;0.93;;;21.40;95.90;;;;;;4983168;28;20464;-64
2023/10/25 04:40:47;;;;;;;1.10;0.97;;;21.30;95.90;;;;;;4982256;28;21019;-64
2023/10/25 04:43:13;;;;;;;1.20;0.80;;;21.30;95.90;;;;;;4982528;28;20460;-64
2023/10/25 04:45:40;;;;;;;0.93;0.73;;;21.30;95.90;;;;;;4983130;28;20765;-64
2023/10/25 04:48:07;;;;;;;1.30;0.90;;;21.30;95.90;;;;;;4985509;28;20473;-63
2023/10/25 04:50:37;;;;;;;1.03;0.90;;;21.30;95.90;;;;;;4985124;28;20829;-64
2023/10/25 04:53:04;;;;;;;1.40;1.02;;;21.30;95.90;;;;;;4986739;28;20859;-64
2023/10/25 04:55:31;;;;;;;1.10;0.90;;;21.30;95.90;;;;;;4984842;28;20208;-64
2023/10/25 04:57:58;;;;;;;1.00;0.90;;;21.30;96.00;;;;;;4985263;28;20481;-64
2023/10/25 05:00:25;;;;;;;1.50;0.90;;;21.30;96.00;;;;;;4984141;28;20678;-64
2023/10/25 05:02:52;;;;;;;1.20;1.10;;;21.30;96.00;;;;;;4983054;28;20478;-64
2023/10/25 05:05:19;;;;;;;1.23;1.00;;;21.30;96.00;;;;;;4985318;28;21121;-64
2023/10/25 05:07:47;;;;;;;1.10;1.00;;;21.30;96.00;;;;;;4983520;28;20819;-64
2023/10/25 05:10:15;;;;;;;1.03;0.90;;;21.30;96.00;;;;;;4984863;28;20201;-64
2023/10/25 05:12:43;;;;;;;1.20;0.98;;;21.30;96.00;;;;;;4983515;28;20468;-64
2023/10/25 05:15:11;;;;;;;1.10;0.75;;;21.20;95.90;;;;;;4984838;28;20271;-64
2023/10/25 05:17:39;;;;;;;1.03;0.90;;;21.30;96.00;;;;;;4982986;28;20201;-64
2023/10/25 05:20:07;;;;;;;1.38;1.00;;;21.30;96.00;;;;;;4982585;28;20480;-64
2023/10/25 05:22:36;;;;;;;1.05;0.85;;;21.20;96.00;;;;;;4984553;28;20212;-63
2023/10/25 05:25:05;;;;;;;1.10;0.90;;;21.30;96.00;;;;;;4984120;28;20215;-64
2023/10/25 05:27:33;;;;;;;1.20;1.00;;;21.20;96.00;;;;;;4984033;28;20463;-64
2023/10/25 05:30:03;;;;;;;1.45;1.02;;;21.30;96.10;;;;;;4982238;28;20480;-64
2023/10/25 05:32:31;;;;;;;1.10;0.90;;;21.20;96.10;;;;;;4982507;28;20206;-64
2023/10/25 05:34:58;;;;;;;0.95;0.77;;;21.20;96.10;;;;;;4984129;28;20212;-64
2023/10/25 05:37:26;;;;;;;1.00;0.90;;;21.20;96.10;;;;;;4984821;28;20275;-64
2023/10/25 05:39:53;;;;;;;1.17;0.97;;;21.20;96.10;;;;;;4987178;28;20998;-64
2023/10/25 05:42:23;;;;;;;1.00;0.70;;;21.20;96.10;;;;;;4986772;28;21212;-64
2023/10/25 05:44:53;;;;;;;1.52;0.82;;;21.30;96.10;;;;;;4985769;28;20200;-64
2023/10/25 05:47:21;;;;;;;1.07;0.97;;;21.20;96.10;;;;;;4982998;28;20193;-64
2023/10/25 05:49:48;;;;;;;1.27;1.17;;;21.20;96.10;;;;;;4982910;28;20471;-64
2023/10/25 05:52:15;;;;;;;0.93;0.80;;;21.20;96.10;;;;;;4985536;28;20204;-64
2023/10/25 05:54:43;;;;;;;1.10;1.00;;;21.20;96.10;;;;;;4986625;28;20204;-63
2023/10/25 05:57:11;;;;;;;1.10;0.90;;;21.20;96.10;;;;;;4984122;28;20471;-63
2023/10/25 05:59:40;;;;;;;1.10;0.90;;;21.20;96.10;;;;;;4985198;28;20196;-63
2023/10/25 06:02:10;;;;;;;1.00;0.80;;;21.20;96.20;;;;;;4984024;28;20513;-63
2023/10/25 06:04:39;;;;;;;1.13;0.80;;;21.20;96.20;;;;;;4985276;28;21105;-63
2023/10/25 06:07:07;;;;;;;1.27;0.80;;;21.20;96.20;;;;;;4986191;28;20205;-63
2023/10/25 06:09:34;;;;;;;1.10;0.98;;;21.20;96.20;;;;;;4983952;28;20653;-63
2023/10/25 06:12:02;;;;;;;0.90;0.70;;;21.20;96.30;;;;;;4984904;28;20201;-63
2023/10/25 06:14:30;;;;;;;1.10;0.87;;;21.20;96.30;;;;;;4984617;28;20189;-63
2023/10/25 06:16:58;;;;;;;1.20;0.98;;;21.20;96.30;;;;;;4983520;28;20529;-63
2023/10/25 06:19:25;;;;;;;1.20;0.90;;;21.10;96.30;;;;;;4982238;28;20203;-63
2023/10/25 06:21:52;;;;;;;1.25;0.88;;;21.20;96.30;;;;;;4982785;28;20831;-63
2023/10/25 06:24:19;;;;;;;0.98;0.75;;;21.20;96.40;;;;;;4979395;28;20203;-63
2023/10/25 06:26:45;;;;;;;1.00;0.80;;;21.20;96.40;;;;;;4977914;28;20203;-62
2023/10/25 06:29:12;;;;;;;1.00;0.90;;;21.20;96.50;;;;;;4977897;28;21265;-63
2023/10/25 06:31:39;;;;;;;1.30;1.00;;;21.20;96.50;;;;;;4981715;28;20208;-62
2023/10/25 06:34:07;;;;;;;1.08;0.95;;;21.20;96.50;;;;;;4980886;28;20463;-63
2023/10/25 06:36:35;;;;;;;0.90;0.80;;;21.20;96.60;;;;;;4979808;28;20227;-63
2023/10/25 06:39:04;;;;;;;1.10;1.00;;;21.20;96.60;;;;;;4984269;28;20208;-63
2023/10/25 06:41:32;;;;;;;1.20;1.00;;;21.20;96.60;;;;;;4981303;28;20256;-63
2023/10/25 06:44:00;;;;;;;1.25;1.15;;;21.20;96.60;;;;;;4979158;28;21098;-63
2023/10/25 06:46:27;;;;;;;1.25;1.08;;;21.30;96.70;;;;;;4977536;28;20201;-63
2023/10/25 06:48:56;;;;;;;1.00;0.90;;;21.20;96.30;;;;;;4980850;28;20266;-61
2023/10/25 06:51:25;;;;;;;1.23;1.10;;;21.20;96.40;;;;;;4980720;28;20661;-62
2023/10/25 06:53:52;;;;;;;1.20;1.10;;;21.30;96.50;;;;;;4981574;28;20452;-62
2023/10/25 06:56:20;;;;;;;1.35;1.10;;;21.30;96.50;;;;;;4977888;28;20938;-62
2023/10/25 06:58:47;;;;;;;1.30;0.93;;;21.30;96.40;;;;;;4978008;28;20205;-62
2023/10/25 07:01:18;;;;;;;1.10;0.93;;;21.30;96.40;;;;;;4978031;28;20482;-62
2023/10/25 07:03:47;;;;;;;1.40;0.90;;;21.30;96.30;;;;;;4981577;28;20200;-62
2023/10/25 07:06:16;;;;;;;1.20;1.10;;;21.30;96.30;;;;;;4980029;28;20491;-62
2023/10/25 07:08:45;;;;;;;1.40;1.10;;;21.40;96.30;;;;;;4981157;28;20880;-62
2023/10/25 07:11:12;;;;;;;1.27;1.17;;;21.40;96.30;;;;;;4980758;28;20202;-62
2023/10/25 07:13:39;;;;;;;1.33;0.90;;;21.40;96.20;;;;;;4981699;28;20463;-62
2023/10/25 07:16:07;;;;;;;1.33;1.10;;;21.40;96.20;;;;;;4980834;28;20463;-62
2023/10/25 07:18:34;;;;;;;1.60;1.00;;;21.40;96.10;;;;;;4980586;28;20468;-62
2023/10/25 07:21:00;;;;;;;1.50;1.17;;;21.40;96.10;;;;;;4979650;28;20829;-62
2023/10/25 07:23:27;;;;;;;1.50;0.90;;;21.40;96.00;;;;;;4980910;28;21115;-62
2023/10/25 07:25:55;;;;;;;1.60;1.00;;;21.50;96.10;;;;;;4979091;28;20456;-63
2023/10/25 07:28:22;;;;;;;4.03;1.27;;;21.50;96.20;;;;;;4981123;28;20459;-62
2023/10/25 07:30:50;;;;;;;1.30;1.00;;;21.50;95.90;;;;;;4979799;28;20498;-62
2023/10/25 07:33:17;;;;;;;1.50;1.00;;;21.40;95.80;;;;;;4982082;28;20469;-62
2023/10/25 07:35:45;;;;;;;2.63;2.33;;;21.40;95.80;;;;;;4980603;28;20589;-62
2023/10/25 07:38:11;;;;;;;1.10;0.80;;;21.50;95.90;;;;;;4982134;28;20459;-62
2023/10/25 07:40:40;;;;;;;2.53;1.10;;;21.40;95.80;;;;;;4977894;28;20484;-62
2023/10/25 07:43:08;;;;;;;1.80;1.20;;;21.50;95.80;;;;;;4980485;28;20538;-62
2023/10/25 07:45:34;;;;;;;1.60;1.50;;;21.50;95.80;;;;;;4981944;28;21231;-62
2023/10/25 07:48:01;;;;;;;1.60;1.00;;;21.60;95.90;;;;;;4981461;28;20460;-62
2023/10/25 07:50:28;;;;;;;1.00;0.83;;;21.50;95.80;;;;;;4984832;28;20456;-62
2023/10/25 07:52:55;;;;;;;1.50;1.23;;;21.50;95.80;;;;;;4983151;28;20904;-63
2023/10/25 07:55:21;;;;;;;1.50;1.00;;;21.60;95.80;;;;;;4980646;28;20459;-62
2023/10/25 07:57:48;;;;;;;1.60;1.20;;;21.60;95.80;;;;;;4983555;28;21485;-63
2023/10/25 08:00:17;;;;;;;1.23;1.00;;;21.60;95.70;;;;;;4983237;28;20460;-62
2023/10/25 08:02:43;;;;;;;1.20;1.10;;;21.60;95.70;;;;;;4983394;28;20979;-62
2023/10/25 08:05:10;;;;;;;1.20;1.10;;;21.60;95.60;;;;;;4984393;28;20957;-62
2023/10/25 08:07:37;;;;;;;1.30;1.20;;;21.60;95.60;;;;;;4984237;28;20463;-62
2023/10/25 08:10:06;;;;;;;1.30;1.10;;;21.60;95.60;;;;;;4981960;28;21064;-62
2023/10/25 08:12:35;;;;;;;1.33;1.17;;;21.60;95.50;;;;;;4980735;28;20455;-63
2023/10/25 08:15:02;;;;;;;2.83;1.23;;;21.60;95.50;;;;;;4982894;28;20546;-62
2023/10/25 08:17:30;;;;;;;1.43;1.17;;;21.60;95.50;;;;;;4980937;28;20471;-62
2023/10/25 08:19:57;;;;;;;1.97;1.13;;;21.60;95.40;;;;;;4982591;28;20466;-62
2023/10/25 08:22:24;;;;;;;1.43;1.20;;;21.60;95.40;;;;;;4979662;28;20584;-62
2023/10/25 08:24:51;;;;;;;1.70;1.47;;;21.60;95.40;;;;;;4982012;28;20448;-62
2023/10/25 08:27:18;;;;;;;1.50;1.40;;;21.70;95.40;;;;;;4982784;28;20470;-62
2023/10/25 08:29:45;;;;;;;1.23;0.90;;;21.60;95.40;;;;;;4979563;28;20561;-62
2023/10/25 08:32:12;;;;;;;1.47;1.30;;;21.60;95.40;;;;;;4982499;28;20812;-62
2023/10/25 08:34:46;;;;;;;3.40;1.70;;;21.60;95.40;;;;;;4982622;28;21061;-62
2023/10/25 08:37:13;;;;;;;2.80;1.27;;;21.70;95.40;;;;;;4983642;28;20494;-62
2023/10/25 08:39:40;;;;;;;1.90;1.53;;;21.80;95.50;;;;;;4981818;28;20459;-62
2023/10/25 08:42:10;;;;;;;5.00;1.80;;;21.70;95.40;;;;;;4984326;28;20479;-62
2023/10/25 08:44:40;;;;;;;2.20;1.30;;;21.70;95.40;;;;;;4982146;28;20952;-62
2023/10/25 08:47:08;;;;;;;1.90;1.30;;;21.70;95.40;;;;;;4984314;28;20463;-62
2023/10/25 08:49:35;;;;;;;2.03;1.33;;;21.70;95.40;;;;;;4980936;28;20471;-62
2023/10/25 08:52:04;;;;;;;3.03;1.60;;;21.70;95.40;;;;;;4983453;28;20475;-62
2023/10/25 08:54:31;;;;;;;2.70;1.87;;;21.70;95.40;;;;;;4983237;28;21114;-62
2023/10/25 08:56:58;;;;;;;2.30;1.67;;;21.70;95.40;;;;;;4982235;28;20613;-62
2023/10/25 08:59:25;;;;;;;2.27;1.30;;;21.70;95.40;;;;;;4982260;28;20468;-62
2023/10/25 09:01:52;;;;;;;2.73;1.47;;;21.70;95.40;;;;;;4981427;28;20487;-62
2023/10/25 09:04:19;;;;;;;3.37;2.27;;;21.70;95.40;;;;;;4981303;28;20464;-62
2023/10/25 09:06:46;;;;;;;2.50;1.83;;;21.70;95.40;;;;;;4981258;28;20727;-62
2023/10/25 09:09:14;;;;;;;2.07;1.67;;;21.80;95.50;;;;;;4980247;28;21388;-62
2023/10/25 09:11:42;;;;;;;5.50;1.50;;;21.70;95.50;;;;;;4981827;28;20456;-62
2023/10/25 09:14:10;;;;;;;2.77;1.80;;;21.70;95.90;;;;;;4983952;28;20463;-62
2023/10/25 09:16:40;;;;;;;1.70;1.43;;;21.80;95.50;;;;;;4982743;28;20459;-62
2023/10/25 09:19:07;;;;;;;2.83;1.77;;;21.70;95.50;;;;;;4983053;28;20539;-62
2023/10/25 09:21:34;;;;;;;2.90;1.53;;;21.80;95.60;;;;;;4981851;28;20515;-62
2023/10/25 09:24:02;;;;;;;4.03;1.90;;;21.80;95.60;;;;;;4982102;28;20958;-62
2023/10/25 09:26:35;;;;;;;4.43;2.27;;;21.70;95.60;;;;;;4983128;28;20555;-62
2023/10/25 09:29:03;;;;;;;3.70;2.03;;;21.80;95.70;;;;;;4983924;28;20493;-62
2023/10/25 09:31:33;;;;;;;1.93;1.73;;;21.80;96.00;;;;;;4982156;28;20463;-62
2023/10/25 09:34:03;;;;;;;6.50;2.17;;;21.80;95.60;;;;;;4982351;28;21234;-62
2023/10/25 09:36:30;;;;;;;4.47;2.10;;;21.80;95.70;;;;;;4982868;28;20557;-62
2023/10/25 09:38:57;;;;;;;3.67;2.47;;;21.80;95.70;;;;;;4982809;28;20456;-62
2023/10/25 09:41:27;;;;;;;2.53;1.43;;;21.80;95.70;;;;;;4983476;28;20486;-62
2023/10/25 09:44:00;;;;;;;3.20;1.90;;;21.80;95.70;;;;;;4983459;28;21061;-62
2023/10/25 09:46:30;;;;;;;2.20;1.77;;;21.80;95.70;;;;;;4981642;28;20486;-62
2023/10/25 09:49:06;;;;;;;2.43;1.63;;;21.80;95.70;;;;;;4982397;28;20525;-62
2023/10/25 09:51:43;;;;;;;2.47;1.77;;;21.80;95.80;;;;;;4983921;28;21079;-62
2023/10/25 09:54:12;;;;;;;2.77;1.83;;;21.80;95.80;;;;;;4983972;28;20459;-64
2023/10/25 09:56:38;;;;;;;4.40;2.10;;;21.80;95.70;;;;;;4983260;28;20459;-62
2023/10/25 09:59:10;;;;;;;2.60;2.10;;;21.80;95.70;;;;;;4984345;28;20798;-62
2023/10/25 10:01:38;;;;;;;1.87;1.67;;;21.80;95.70;;;;;;4984984;28;20479;-62
2023/10/25 10:04:14;;;;;;;3.37;2.20;;;21.80;95.70;;;;;;4984702;28;20456;-62
2023/10/25 10:06:47;;;;;;;2.80;1.67;;;21.80;95.70;;;;;;4984511;28;20455;-62
2023/10/25 10:09:23;;;;;;;3.47;1.80;;;21.90;95.80;;;;;;4984958;28;20456;-62
2023/10/25 10:11:56;;;;;;;4.33;2.00;;;21.80;95.70;;;;;;4985780;28;20482;-62
2023/10/25 10:14:32;;;;;;;4.37;1.97;;;21.90;95.80;;;;;;4986226;28;20455;-62
2023/10/25 10:17:03;;;;;;;2.70;1.80;;;21.90;95.80;;;;;;4985879;28;20451;-62
2023/10/25 10:19:31;;;;;;;2.47;2.07;;;21.90;95.80;;;;;;4981178;28;20472;-62
2023/10/25 10:22:06;;;;;;;2.33;1.80;;;21.90;95.80;;;;;;4981850;28;20996;-62
2023/10/25 10:24:44;;;;;;;4.00;2.30;;;21.90;95.70;;;;;;4981249;28;20463;-62
2023/10/25 10:27:13;;;;;;;3.60;1.80;;;21.90;95.70;;;;;;4982043;28;20461;-62
2023/10/25 10:29:45;;;;;;;3.20;2.17;;;22.00;95.80;;;;;;4981475;28;20463;-62
2023/10/25 10:32:13;;;;;;;1.93;1.60;;;21.90;95.70;;;;;;4981023;28;20502;-62
2023/10/25 10:34:44;;;;;;;3.27;2.07;;;21.90;95.80;;;;;;4981090;28;20454;-62
2023/10/25 10:37:13;;;;;;;3.07;2.03;;;21.90;95.80;;;;;;4983072;28;20455;-62
2023/10/25 10:40:11;;;;;;;2.40;1.60;;;21.90;95.80;;;;;;4981930;28;20468;-62
2023/10/25 10:42:40;;;;;;;2.80;1.67;;;21.90;95.80;;;;;;4980317;28;20470;-62
2023/10/25 10:45:14;;;;;;;3.10;2.03;;;21.90;95.80;;;;;;4977292;28;20510;-62
2023/10/25 10:47:42;;;;;;;2.57;1.67;;;22.00;95.80;;;;;;4981305;28;20462;-62
2023/10/25 10:50:11;;;;;;;4.20;1.90;;;21.90;95.80;;;;;;4981862;28;20464;-62
2023/10/25 10:52:39;;;;;;;3.03;1.77;;;22.00;95.90;;;;;;4981275;28;20474;-62
2023/10/25 10:55:07;;;;;;;4.23;2.33;;;21.90;95.80;;;;;;4981922;28;21043;-62
2023/10/25 10:57:35;;;;;;;2.93;1.70;;;21.90;95.80;;;;;;4980513;28;20590;-62
2023/10/25 11:00:03;;;;;;;2.93;1.97;;;22.00;95.90;;;;;;4978602;28;20773;-62
2023/10/25 11:02:31;;;;;;;2.20;1.47;;;21.90;95.80;;;;;;4981466;28;21078;-62
2023/10/25 11:04:59;;;;;;;3.80;1.70;;;22.00;96.20;;;;;;4979534;28;20471;-62
2023/10/25 11:07:26;;;;;;;3.10;1.73;;;22.00;95.90;;;;;;4980743;28;20463;-62
2023/10/25 11:09:53;;;;;;;3.37;1.70;;;21.90;95.90;;;;;;4981906;28;20467;-63
2023/10/25 11:12:20;;;;;;;4.30;2.00;;;22.00;95.90;;;;;;4980949;28;20471;-63
2023/10/25 11:14:48;;;;;;;3.47;2.00;;;22.00;95.90;;;;;;4981441;28;20920;-63
2023/10/25 11:17:15;;;;;;;2.57;1.70;;;22.00;95.90;;;;;;4980265;28;20462;-62
2023/10/25 11:19:45;;;;;;;6.60;2.17;;;22.00;95.90;;;;;;4980008;28;20471;-63
2023/10/25 11:22:11;;;;;;;2.13;1.73;;;22.00;95.90;;;;;;4980979;28;21010;-62
2023/10/25 11:24:38;;;;;;;3.93;1.73;;;22.00;95.90;;;;;;4981190;28;20464;-62
2023/10/25 11:27:06;;;;;;;1.73;1.30;;;22.00;95.90;;;;;;4982645;28;20462;-62
2023/10/25 11:29:33;;;;;;;3.10;1.77;;;22.00;95.90;;;;;;4979913;28;20459;-62
2023/10/25 11:32:04;;;;;;;2.07;1.87;;;22.00;95.90;;;;;;4983286;28;20973;-62
2023/10/25 11:34:33;;;;;;;2.57;1.43;;;22.00;95.90;;;;;;4982727;28;20949;-62
2023/10/25 11:37:01;;;;;;;2.47;1.70;;;22.00;95.90;;;;;;4982488;28;20470;-62
2023/10/25 11:39:32;;;;;;;2.30;1.50;;;22.00;95.90;;;;;;4982578;28;20467;-62
2023/10/25 11:41:59;;;;;;;3.27;1.93;;;22.00;95.80;;;;;;4982798;28;20485;-62
2023/10/25 11:44:26;;;;;;;2.43;1.87;;;22.00;95.90;;;;;;4982003;28;20705;-61
2023/10/25 11:46:55;;;;;;;2.07;1.60;;;22.00;96.20;;;;;;4981917;28;20452;-62
2023/10/25 11:49:22;;;;;;;1.60;1.33;;;22.00;95.80;;;;;;4981748;28;20475;-62
2023/10/25 11:51:49;;;;;;;1.83;1.40;;;22.00;95.80;;;;;;4981655;28;20986;-62
2023/10/25 11:54:17;;;;;;;2.20;1.70;;;22.10;95.90;;;;;;4983857;28;20464;-62
2023/10/25 11:56:43;;;;;;;3.03;1.53;;;22.10;95.90;;;;;;4983191;28;20472;-62
2023/10/25 11:59:10;;;;;;;2.53;1.60;;;22.00;95.80;;;;;;4981810;28;20453;-62
2023/10/25 12:01:37;;;;;;;3.10;1.87;;;22.10;95.90;;;;;;4984091;28;20464;-62
2023/10/25 12:04:04;;;;;;;2.43;1.97;;;22.10;95.80;;;;;;4986138;28;20526;-61
2023/10/25 12:06:31;;;;;;;2.13;1.57;;;22.10;95.80;;;;;;4985181;28;20456;-62
2023/10/25 12:08:59;;;;;;;2.00;1.23;;;22.10;95.80;;;;;;4985970;28;20466;-61
2023/10/25 12:11:27;;;;;;;2.67;1.60;;;22.10;95.80;;;;;;4985457;28;21560;-61
2023/10/25 12:13:54;;;;;;;2.30;1.43;;;22.10;95.80;;;;;;4981226;28;20460;-61
2023/10/25 12:16:20;;;;;;;2.77;1.70;;;22.10;95.80;;;;;;4983771;28;20964;-62
2023/10/25 12:18:47;;;;;;;2.07;1.70;;;22.10;95.70;;;;;;4982886;28;20474;-62
2023/10/25 12:21:14;;;;;;;2.43;1.33;;;22.10;95.80;;;;;;4985913;28;20494;-61
2023/10/25 12:23:41;;;;;;;3.07;2.43;;;22.10;95.70;;;;;;4985205;28;20984;-61
2023/10/25 12:26:09;;;;;;;2.80;1.70;;;22.10;95.80;;;;;;4985436;28;20455;-61
2023/10/25 12:28:38;;;;;;;2.83;1.70;;;22.10;95.70;;;;;;4985992;28;20462;-61
2023/10/25 12:31:04;;;;;;;1.70;1.50;;;22.10;95.70;;;;;;4987009;28;20468;-61
2023/10/25 12:33:31;;;;;;;3.13;1.77;;;22.10;95.70;;;;;;4985082;28;20475;-62
2023/10/25 12:35:58;;;;;;;2.70;1.40;;;22.10;95.70;;;;;;4987864;28;20463;-61
2023/10/25 12:38:25;;;;;;;2.80;1.60;;;22.10;95.70;;;;;;4988333;28;20816;-61
2023/10/25 12:40:51;;;;;;;2.30;1.57;;;22.10;95.70;;;;;;4987288;28;20870;-61
2023/10/25 12:43:18;;;;;;;2.23;1.60;;;22.10;95.70;;;;;;4984223;28;20472;-61
2023/10/25 12:45:46;;;;;;;4.00;1.93;;;22.10;95.70;;;;;;4985080;28;20815;-61
2023/10/25 12:48:14;;;;;;;1.73;1.50;;;22.10;95.60;;;;;;4985655;28;20478;-61
2023/10/25 12:50:41;;;;;;;2.90;1.53;;;22.10;95.60;;;;;;4987364;28;20459;-62